Soaring Guidance
Issued by NWS Reno, NV

Home | Current Version | Previous Version | Text Only | Print | Product List | Glossary On
Versions: 1 2 3 4 5 6 7 8
000
UXUS97 KREV 221346
SRGREV

SOARING FORECAST
NATIONAL WEATHER SERVICE - RENO NV
700 AM PDT TUE AUG 22 2017

THIS SOARING FORECAST IS FOR THE EASTERN SIERRA AND WESTERN NEVADA
WITH SPECIFIC INDICES FOR THE GREATER RENO AREA.

THIS FORECAST IS PREPARED DAILY BY 700 AM AND IS NOT UPDATED.

FOR CURRENT FLIGHT CONDITIONS...FORECASTS...AND ADVISORIES...ACCESS
YOUR LOCAL BRIEFING OUTLET OR FLIGHT SERVICE STATION.

*******************************************************************
FORECASTED LOCAL INDICES FOR RENO:        TODAY     YESTERDAY
FORECASTED MAX TEMP AT RENO (DEG F).....     88          94
FORECASTED TRIGGER TEMPERATURE (DEG F)..     80          83
   EXCEEDED YESTERDAY BY 1155 AM PDT
FORECASTED MAXIMUM ALTITUDE (FT MSL)....  16000       18000
FORECASTED SOARING INDEX (FPM)..........   1080        1026
FORECASTED K-INDEX.........VALID 18Z....     31          26
FORECASTED K-INDEX.........VALID 00Z....     35          28
FORECASTED LIFTED INDEX....VALID 18Z....      0           0
FORECASTED LIFTED INDEX....VALID 00Z....     -2          -2

AFTERNOON WINDS ALOFT FORECAST
MSL (FT) WIND/TEMP
9000  9900/+15
10000 9902/+12
12000 0907/+06
14000 1008/+01
16000 1109/-04
18000 1310/-09
24000 1512/-21
30000 1215/-38
34000 1511/-47
39000 1508/-56

SLIDE MOUNTAIN DATA:
     DATE       TIME     TEMP  DEWPT   RH         WIND (MPH)
                        (F)   (F)           | DIR  SPEED GUST
2017-08-22    04:50      49    48     97    | 237   12   22
2017-08-22    04:30      49    48     95    | 241   12   21
2017-08-22    04:20      51    45     74    | 246   16   29
2017-08-22    04:00      53    43     62    | 231   10   24

RENO TAF FORECAST:
KRNO 221131Z 2212/2312 VRB03KT P6SM VCSH SCT090 BKN160
     FM222200 18008KT P6SM VCTS SCT080CB BKN120
     FM230300 32007KT P6SM SCT100 BKN150
     FM230800 VRB03KT P6SM FEW120 BKN180

CARSON CITY TAF FORECAST:
KCXP 221131Z 2212/2312 00000KT P6SM VCSH SCT050 BKN090
     FM222100 08010KT P6SM VCTS SCT070CB BKN100
     FM230300 VRB03KT P6SM SCT090 BKN140

OUTLOOK FOR THE RENO-CARSON CITY-MINDEN AREA:
.WEDNESDAY...PARTLY CLOUDY. SLIGHT CHANCE OF SHOWERS AND
THUNDERSTORMS IN THE AFTERNOON. HIGHS 85 TO 90. LIGHT WINDS.

SUNRISE AND SUNSET
AUGUST 22 2017........SUNRISE   618 AM PDT   SUNSET   745 PM PDT
AUGUST 23 2017........SUNRISE   619 AM PDT   SUNSET   743 PM PDT



USA.gov is the U.S. government's official web portal to all federal, state and local government web resources and services.